Latest Weather Observations for Mount Lofty

IDS60901

Issued at 7:51 pm CDT Saturday 28 March 2015 (issued every 10 minutes, with the page automatically refreshed every 10 minutes)

About weather observations | Map of Adelaide area stations | Latest observations for Adelaide area | Other Formats
Station Details ID: 023842 Name: MOUNT LOFTY Lat: -34.98 Lon: 138.71 Height: 685.0 m
Data from the previous 72 hours. | See also: Recent months at Mount Lofty
Date/Time
CDT
Tmp

°C
App
Tmp
°C
Dew
Point
°C
Rel
Hum
%
Delta-T

°C
Wind Press
QNH
hPa
Press
MSL
hPa
Rain
since
9 am
mm
Dir
 
Spd
km/h
Gust
km/h
Spd
kts
Gust
kts
28/07:30pm 13.6 12.2 5.7 59 3.9 WNW 2 4 1 2 - - 0.0
28/07:00pm 14.5 13.2 5.8 56 4.3 W 2 6 1 3 - - 0.0
28/06:30pm 14.8 13.0 5.6 54 4.5 WNW 4 7 2 4 - - 0.0
28/06:00pm 15.4 13.2 5.3 51 5.0 WNW 6 13 3 7 - - 0.0
28/05:30pm 15.9 13.6 4.9 48 5.4 WNW 6 11 3 6 - - 0.0
28/05:00pm 15.9 13.6 5.5 50 5.2 WNW 7 15 4 8 - - 0.0
28/04:30pm 16.3 13.8 6.4 52 5.0 WNW 9 17 5 9 - - 0.0
28/04:00pm 16.8 14.1 7.2 53 5.0 WNW 11 19 6 10 - - 0.0
28/03:30pm 16.4 14.1 7.6 56 4.6 WNW 9 20 5 11 - - 0.0
28/03:00pm 16.4 14.1 7.6 56 4.6 WNW 9 17 5 9 - - 0.0
28/02:30pm 16.4 14.2 7.9 57 4.4 WNW 9 19 5 10 - - 0.0
28/02:00pm 16.0 13.0 7.5 57 4.4 NW 13 26 7 14 - - 0.0
28/01:30pm 16.0 12.8 7.0 55 4.6 NW 13 22 7 12 - - 0.0
28/01:00pm 16.1 13.6 8.3 60 4.1 NW 11 19 6 10 - - 0.0
28/12:30pm 15.3 12.7 7.8 61 3.9 NW 11 17 6 9 - - 0.0
28/12:00pm 14.8 13.0 8.1 64 3.5 NNW 7 13 4 7 - - 0.0
28/11:30am 13.7 11.7 8.5 71 2.7 NNW 9 17 5 9 - - 0.0
28/11:00am 12.7 10.9 8.0 73 2.4 N 7 15 4 8 - - 0.0
28/10:30am 11.9 10.1 8.0 77 2.0 N 7 15 4 8 - - 0.0
28/10:00am 11.2 9.2 8.6 84 1.3 N 9 15 5 8 - - 0.0
28/09:30am 10.1 8.7 8.7 91 0.7 NE 6 13 3 7 - - 0.0
28/09:00am 8.6 7.0 8.2 97 0.2 E 6 15 3 8 - - 0.0
28/08:30am 8.0 6.3 7.7 98 0.1 E 6 9 3 5 - - 0.0
28/08:00am 7.5 6.1 7.2 98 0.1 ESE 4 7 2 4 - - 0.0
28/07:30am 6.8 5.2 6.4 97 0.2 ESE 4 6 2 3 - - 0.0
28/07:00am 6.9 5.7 6.5 97 0.2 E 2 4 1 2 - - 0.0
28/06:30am 7.2 5.7 6.8 97 0.2 ESE 4 6 2 3 - - 0.0
28/06:00am 7.2 5.7 6.8 97 0.2 ESE 4 7 2 4 - - 0.0
28/05:30am 7.1 5.6 6.7 97 0.2 ESE 4 7 2 4 - - 0.0
28/05:00am 7.5 5.7 7.1 97 0.2 ESE 6 9 3 5 - - 0.0
28/04:30am 7.1 5.6 6.7 97 0.2 E 4 7 2 4 - - 0.0
28/04:00am 7.1 5.2 6.7 97 0.2 ESE 6 11 3 6 - - 0.0
28/03:30am 7.4 5.6 7.0 97 0.2 ESE 6 13 3 7 - - 0.0
28/03:00am 7.8 6.1 7.4 97 0.2 ESE 6 11 3 6 - - 0.0
28/02:30am 8.2 6.0 7.8 97 0.2 ESE 9 15 5 8 - - 0.0
28/02:00am 8.4 6.8 7.8 96 0.3 ESE 6 9 3 5 - - 0.0
28/01:30am 8.4 6.2 7.8 96 0.3 ESE 9 15 5 8 - - 0.0
28/01:00am 8.3 6.4 7.7 96 0.3 ESE 7 17 4 9 - - 0.0
28/12:30am 7.7 5.6 6.8 94 0.4 ESE 7 11 4 6 - - 0.0
28/12:00am 8.2 6.3 7.4 95 0.4 ESE 7 13 4 7 - - 0.0
 
Date/Time
CDT
Tmp

°C
App
Tmp
°C
Dew
Point
°C
Rel
Hum
%
Delta-T

°C
Wind Press
QNH
hPa
Press
MSL
hPa
Rain
since
9 am
mm
Dir
 
Spd
km/h
Gust
km/h
Spd
kts
Gust
kts
27/11:30pm 8.2 6.3 7.6 96 0.3 ESE 7 13 4 7 - - 0.0
27/11:00pm 7.8 6.0 7.1 95 0.3 ESE 6 9 3 5 - - 0.0
27/10:30pm 8.1 6.3 7.3 95 0.4 ESE 6 11 3 6 - - 0.0
27/10:00pm 8.4 6.5 7.5 94 0.4 ESE 7 13 4 7 - - 0.0
27/09:30pm 8.9 7.3 7.8 93 0.5 ESE 6 11 3 6 - - 0.0
27/09:00pm 9.1 7.2 7.7 91 0.7 ESE 7 11 4 6 - - 0.0
27/08:30pm 9.7 7.9 7.8 88 0.9 ESE 7 13 4 7 - - 0.0
27/08:00pm 10.2 8.6 8.0 86 1.1 SE 6 13 3 7 - - 0.0
27/07:30pm 10.5 9.5 8.8 89 0.9 SSE 4 9 2 5 - - 0.0
27/07:00pm 10.7 9.7 9.0 89 0.9 SSE 4 9 2 5 - - 0.0
27/06:30pm 11.0 10.0 8.9 87 1.1 S 4 9 2 5 - - 0.0
27/06:00pm 11.4 10.3 8.6 83 1.4 S 4 9 2 5 - - 0.0
27/05:30pm 11.7 10.2 8.6 81 1.6 S 6 9 3 5 - - 0.0
27/05:00pm 12.2 10.9 7.7 74 2.3 SSE 4 7 2 4 - - 0.0
27/04:30pm 12.2 10.6 7.9 75 2.2 SSE 6 13 3 7 - - 0.0
27/04:00pm 12.5 11.2 7.6 72 2.5 SE 4 9 2 5 - - 0.0
27/03:30pm 12.6 10.9 7.5 71 2.6 ESE 6 13 3 7 - - 0.0
27/03:00pm 12.4 10.7 7.5 72 2.5 SSE 6 9 3 5 - - 0.0
27/02:30pm 12.8 11.5 7.7 71 2.6 S 4 9 2 5 - - 0.0
27/02:00pm 12.2 10.7 6.9 70 2.6 SSW 4 9 2 5 - - 0.0
27/01:30pm 12.1 10.6 7.0 71 2.5 S 4 11 2 6 - - 0.0
27/01:00pm 12.6 11.0 6.4 66 3.1 SSW 4 11 2 6 - - 0.0
27/12:30pm 11.8 10.2 6.5 70 2.6 S 4 9 2 5 - - 0.0
27/12:00pm 11.8 9.6 6.1 68 2.8 SSW 7 13 4 7 - - 0.0
27/11:30am 11.4 9.1 5.9 69 2.7 SSW 7 17 4 9 - - 0.0
27/11:00am 11.2 9.2 6.3 72 2.4 S 6 11 3 6 - - 0.0
27/10:30am 10.6 9.0 6.2 74 2.1 S 4 11 2 6 - - 0.0
27/10:00am 9.3 7.4 6.7 84 1.3 SW 6 9 3 5 - - 0.0
27/09:30am 9.3 7.2 6.0 80 1.6 SSW 6 11 3 6 - - 0.0
27/09:00am 8.6 7.0 6.4 86 1.1 SW 4 6 2 3 - - 0.2
27/08:30am 8.6 6.9 5.9 83 1.3 SW 4 7 2 4 - - 0.2
27/08:00am 8.6 6.8 5.5 81 1.5 SSW 4 7 2 4 - - 0.2
27/07:30am 8.7 6.5 5.3 79 1.6 SSW 6 11 3 6 - - 0.2
27/07:00am 8.3 6.0 5.8 84 1.2 SSW 7 17 4 9 - - 0.2
27/06:30am 8.3 6.6 5.9 85 1.1 SW 4 7 2 4 - - 0.2
27/06:00am 8.2 6.1 6.0 86 1.0 SSW 6 9 3 5 - - 0.2
27/05:30am 8.3 6.1 5.4 82 1.4 SW 6 13 3 7 - - 0.2
27/05:00am 8.4 6.0 5.3 81 1.4 S 7 15 4 8 - - 0.2
27/04:30am 8.1 6.0 5.7 85 1.1 SW 6 13 3 7 - - 0.2
27/04:00am 8.0 5.8 5.5 84 1.2 SW 6 9 3 5 - - 0.2
27/03:30am 8.1 6.0 5.9 86 1.0 SSW 6 11 3 6 - - 0.2
27/03:00am 7.9 5.8 6.0 88 0.9 SSW 6 13 3 7 - - 0.2
27/02:30am 8.1 6.0 5.7 85 1.1 SSW 6 13 3 7 - - 0.2
27/02:00am 7.8 6.2 6.3 90 0.7 SW 4 9 2 5 - - 0.2
27/01:30am 7.9 5.9 6.2 89 0.8 SSW 6 11 3 6 - - 0.2
27/01:00am 7.9 5.8 6.0 88 0.9 SSW 6 13 3 7 - - 0.2
27/12:30am 7.8 5.7 5.9 88 0.9 S 6 11 3 6 - - 0.2
27/12:00am 7.8 5.7 5.9 88 0.9 S 6 9 3 5 - - 0.2
 
Date/Time
CDT
Tmp

°C
App
Tmp
°C
Dew
Point
°C
Rel
Hum
%
Delta-T

°C
Wind Press
QNH
hPa
Press
MSL
hPa
Rain
since
9 am
mm
Dir
 
Spd
km/h
Gust
km/h
Spd
kts
Gust
kts
26/11:30pm 7.9 5.6 5.9 87 0.9 SW 7 17 4 9 - - 0.2
26/11:00pm 8.1 5.7 5.4 83 1.3 SW 7 13 4 7 - - 0.2
26/10:30pm 7.9 5.6 5.9 87 0.9 SW 7 13 4 7 - - 0.2
26/10:00pm 7.4 5.3 6.0 91 0.7 SW 6 17 3 9 - - 0.2
26/09:30pm 7.8 5.6 6.1 89 0.8 SSW 7 15 4 8 - - 0.2
26/09:00pm 8.5 6.3 5.4 81 1.5 SW 6 13 3 7 - - 0.2
26/08:30pm 8.8 5.9 4.8 76 1.9 SW 9 19 5 10 - - 0.2
26/08:00pm 9.1 6.6 4.5 73 2.1 SW 7 13 4 7 - - 0.2
26/07:30pm 9.3 6.3 4.1 70 2.4 WSW 9 17 5 9 - - 0.2
26/07:00pm 10.1 6.8 4.3 67 2.7 WSW 11 22 6 12 - - 0.2
26/06:30pm 11.0 8.0 4.0 62 3.2 WSW 9 20 5 11 - - 0.2
26/06:00pm 11.1 7.5 2.7 56 3.8 WSW 11 22 6 12 - - 0.2
26/05:30pm 11.7 8.3 4.0 59 3.6 W 11 26 6 14 - - 0.2
26/05:00pm 11.8 9.0 5.0 63 3.2 W 9 19 5 10 - - 0.2
26/04:30pm 13.2 10.0 6.8 65 3.2 WSW 13 26 7 14 - - 0.2
26/04:00pm 10.8 7.6 5.1 68 2.7 WSW 11 20 6 11 - - 0.2
26/03:30pm 11.1 7.3 4.1 62 3.3 W 13 20 7 11 - - 0.2
26/03:00pm 11.1 7.6 5.4 68 2.7 WSW 13 28 7 15 - - 0.2
26/02:30pm 11.2 8.1 5.5 68 2.7 W 11 24 6 13 - - 0.2
26/02:00pm 12.3 8.5 4.0 57 3.9 WSW 13 28 7 15 - - 0.2
26/01:30pm 10.0 7.0 6.0 76 1.9 W 11 19 6 10 - - 0.2
26/01:00pm 10.8 7.8 5.8 71 2.4 WSW 11 26 6 14 - - 0.0
26/12:30pm 10.8 8.0 5.3 69 2.6 WSW 9 20 5 11 - - 0.0
26/12:00pm 10.2 7.2 5.8 74 2.1 WSW 11 26 6 14 - - 0.0
26/11:30am 9.9 6.3 5.1 72 2.3 WSW 13 26 7 14 - - 0.0
26/11:00am 10.4 7.1 4.3 66 2.8 WSW 11 22 6 12 - - 0.0
26/10:30am 9.0 6.1 4.8 75 1.9 WSW 9 22 5 12 - - 0.0
26/10:00am 8.6 5.0 4.8 77 1.8 WSW 13 32 7 17 - - 0.0
26/09:30am 8.6 5.2 3.8 72 2.2 W 11 22 6 12 - - 0.0
26/09:00am 8.0 4.6 3.8 75 1.9 WSW 11 20 6 11 - - 2.2
26/08:30am 7.2 4.2 4.0 80 1.4 W 9 20 5 11 - - 2.2
26/08:00am 6.6 3.1 3.6 81 1.3 WSW 11 20 6 11 - - 2.2
26/07:30am 6.6 3.5 3.6 81 1.3 W 9 20 5 11 - - 2.2
26/07:00am 6.6 3.2 4.1 84 1.1 WSW 11 19 6 10 - - 2.2
26/06:30am 6.8 3.7 3.6 80 1.4 W 9 19 5 10 - - 2.2
26/06:00am 6.6 3.8 3.4 80 1.4 W 7 17 4 9 - - 2.2
26/05:30am 6.6 3.9 3.6 81 1.3 W 7 15 4 8 - - 2.2
26/05:00am 6.6 3.9 3.6 81 1.3 W 7 17 4 9 - - 2.2
26/04:30am 6.6 3.0 3.2 79 1.5 W 11 22 6 12 - - 2.2
26/04:00am 6.7 3.5 3.0 77 1.6 W 9 22 5 12 - - 2.2
26/03:30am 6.8 3.2 3.1 77 1.6 W 11 20 6 11 - - 2.2
26/03:00am 6.6 3.0 2.9 77 1.6 W 11 20 6 11 - - 2.2
26/02:30am 6.9 3.4 3.3 78 1.6 WSW 11 22 6 12 - - 2.2
26/02:00am 6.9 3.3 3.2 77 1.6 W 11 22 6 12 - - 2.2
26/01:30am 7.1 3.2 3.2 76 1.7 W 13 22 7 12 - - 2.2
26/01:00am 6.9 3.3 3.2 77 1.6 W 11 28 6 15 - - 2.2
26/12:30am 7.2 3.7 3.3 76 1.7 W 11 24 6 13 - - 2.2
26/12:00am 7.1 3.8 2.4 72 2.0 W 9 20 5 11 - - 2.2
 
Date/Time
CDT
Tmp

°C
App
Tmp
°C
Dew
Point
°C
Rel
Hum
%
Delta-T

°C
Wind Press
QNH
hPa
Press
MSL
hPa
Rain
since
9 am
mm
Dir
 
Spd
km/h
Gust
km/h
Spd
kts
Gust
kts
25/11:30pm 7.4 4.2 3.3 75 1.8 W 9 20 5 11 - - 2.2
25/11:00pm 7.4 4.3 3.5 76 1.7 W 9 20 5 11 - - 2.2
25/10:30pm 7.5 4.0 3.4 75 1.8 W 11 20 6 11 - - 2.2
25/10:00pm 7.6 4.3 4.6 81 1.4 W 11 24 6 13 - - 2.2
25/09:30pm 7.5 3.7 3.7 77 1.7 W 13 28 7 15 - - 2.2
25/09:00pm 7.7 4.1 4.8 82 1.3 W 13 32 7 17 - - 2.2
25/08:30pm 7.6 4.4 6.7 94 0.4 W 13 28 7 15 - - 2.2
25/08:00pm 7.2 4.4 6.9 98 0.1 W 11 24 6 13 - - 2.2

Latest Capital City Observations: Canberra | Sydney | Melbourne | Brisbane | Adelaide | Perth | Hobart | Darwin

Other Formats:

Comma delimited format used in spreadsheet applications
http://www.bom.gov.au/fwo/IDS60901/IDS60901.95678.axf

JavaScript Object Notation format (JSON) in row-major order
http://www.bom.gov.au/fwo/IDS60901/IDS60901.95678.json